createdAt,value
2018-06-04T00:00:19.000Z,37
2018-06-04T00:01:19.000Z,37
2018-06-04T00:02:19.000Z,37
2018-06-04T00:03:19.000Z,37
2018-06-04T00:05:19.000Z,37
2018-06-04T00:06:19.000Z,37
2018-06-04T00:07:19.000Z,37
2018-06-04T00:08:19.000Z,37
2018-06-04T00:09:19.000Z,37
2018-06-04T00:10:19.000Z,37
2018-06-04T00:11:19.000Z,37
2018-06-04T00:12:19.000Z,37
2018-06-04T00:13:19.000Z,37
2018-06-04T00:14:19.000Z,37
2018-06-04T00:15:19.000Z,37
2018-06-04T00:16:19.000Z,37
2018-06-04T00:17:19.000Z,37
2018-06-04T00:18:19.000Z,37
2018-06-04T00:19:19.000Z,37
2018-06-04T00:20:19.000Z,37
2018-06-04T00:21:19.000Z,37
2018-06-04T00:22:19.000Z,37
2018-06-04T00:23:19.000Z,37
2018-06-04T00:24:19.000Z,37
2018-06-04T00:25:19.000Z,37
2018-06-04T00:26:19.000Z,37
2018-06-04T00:27:19.000Z,37
2018-06-04T00:28:19.000Z,37
2018-06-04T00:29:19.000Z,37
2018-06-04T00:30:19.000Z,37
2018-06-04T00:31:19.000Z,37
2018-06-04T00:32:19.000Z,37
2018-06-04T00:33:19.000Z,37
2018-06-04T00:34:19.000Z,37
2018-06-04T00:35:19.000Z,37
2018-06-04T00:36:19.000Z,37
2018-06-04T00:37:19.000Z,37
2018-06-04T00:38:19.000Z,37
2018-06-04T00:39:19.000Z,37
2018-06-04T00:40:20.000Z,37
2018-06-04T00:41:20.000Z,37
2018-06-04T00:42:20.000Z,37
2018-06-04T00:43:20.000Z,37
2018-06-04T00:44:20.000Z,37
2018-06-04T00:45:20.000Z,37
2018-06-04T00:47:20.000Z,37
2018-06-04T00:48:20.000Z,37
2018-06-04T00:50:20.000Z,37
2018-06-04T00:51:20.000Z,37
2018-06-04T00:52:20.000Z,37
2018-06-04T00:53:20.000Z,37
2018-06-04T00:54:20.000Z,37
2018-06-04T00:55:20.000Z,37
2018-06-04T00:57:20.000Z,37
2018-06-04T00:58:20.000Z,37
2018-06-04T00:59:20.000Z,37
2018-06-04T01:00:20.000Z,37
2018-06-04T01:01:20.000Z,37
2018-06-04T01:02:20.000Z,38
2018-06-04T01:03:20.000Z,37
2018-06-04T01:04:20.000Z,37
2018-06-04T01:05:20.000Z,37
2018-06-04T01:06:20.000Z,37
2018-06-04T01:07:20.000Z,37
2018-06-04T01:08:20.000Z,37
2018-06-04T01:09:20.000Z,37
2018-06-04T01:10:20.000Z,37
2018-06-04T01:11:20.000Z,37
2018-06-04T01:12:20.000Z,37
2018-06-04T01:13:20.000Z,37
2018-06-04T01:14:20.000Z,37
2018-06-04T01:16:20.000Z,37
2018-06-04T01:17:20.000Z,37
2018-06-04T01:19:20.000Z,37
2018-06-04T01:20:20.000Z,37
2018-06-04T01:21:20.000Z,37
2018-06-04T01:22:20.000Z,37
2018-06-04T01:23:20.000Z,38
2018-06-04T01:24:20.000Z,37
2018-06-04T01:25:20.000Z,38
2018-06-04T01:26:20.000Z,38
2018-06-04T01:27:20.000Z,37
2018-06-04T01:28:20.000Z,37
2018-06-04T01:29:20.000Z,37
2018-06-04T01:30:20.000Z,37
2018-06-04T01:31:20.000Z,37
2018-06-04T01:32:20.000Z,37
2018-06-04T01:33:20.000Z,37
2018-06-04T01:34:20.000Z,37
2018-06-04T01:36:20.000Z,37
2018-06-04T01:37:20.000Z,37
2018-06-04T01:38:20.000Z,37
2018-06-04T01:39:20.000Z,37
2018-06-04T01:40:20.000Z,37
2018-06-04T01:41:20.000Z,37
2018-06-04T01:42:20.000Z,37
2018-06-04T01:43:20.000Z,37
2018-06-04T01:44:20.000Z,37
2018-06-04T01:45:20.000Z,37
2018-06-04T01:46:20.000Z,37
2018-06-04T01:47:20.000Z,37
2018-06-04T01:49:20.000Z,37
2018-06-04T01:50:20.000Z,37
2018-06-04T01:51:20.000Z,37
2018-06-04T01:52:20.000Z,37
2018-06-04T01:53:20.000Z,37
2018-06-04T01:54:20.000Z,37
2018-06-04T01:55:20.000Z,37
2018-06-04T01:56:20.000Z,37
2018-06-04T01:57:20.000Z,37
2018-06-04T01:58:20.000Z,37
2018-06-04T01:59:20.000Z,37
2018-06-04T02:00:20.000Z,37
2018-06-04T02:01:20.000Z,37
2018-06-04T02:02:20.000Z,37
2018-06-04T02:03:20.000Z,37
2018-06-04T02:04:20.000Z,37
2018-06-04T02:06:20.000Z,37
2018-06-04T02:07:20.000Z,37
2018-06-04T02:08:20.000Z,37
2018-06-04T02:09:20.000Z,37
2018-06-04T02:11:20.000Z,37
2018-06-04T02:13:20.000Z,37
2018-06-04T02:14:20.000Z,37
2018-06-04T02:15:20.000Z,37
2018-06-04T02:16:20.000Z,37
2018-06-04T02:17:20.000Z,37
2018-06-04T02:18:20.000Z,37
2018-06-04T02:19:20.000Z,37
2018-06-04T02:21:20.000Z,37
2018-06-04T02:22:20.000Z,37
2018-06-04T02:23:20.000Z,37
2018-06-04T02:24:20.000Z,37
2018-06-04T02:25:20.000Z,37
2018-06-04T02:26:20.000Z,37
2018-06-04T02:28:20.000Z,37
2018-06-04T02:29:20.000Z,37
2018-06-04T02:30:20.000Z,37
2018-06-04T02:31:20.000Z,37
2018-06-04T02:32:20.000Z,37
2018-06-04T02:33:20.000Z,38
2018-06-04T02:34:20.000Z,37
2018-06-04T02:35:20.000Z,38
2018-06-04T02:37:20.000Z,37
2018-06-04T02:38:20.000Z,38
2018-06-04T02:39:20.000Z,37
2018-06-04T02:40:20.000Z,38
2018-06-04T02:41:20.000Z,37
2018-06-04T02:42:20.000Z,38
2018-06-04T02:44:20.000Z,38
2018-06-04T02:45:20.000Z,38
2018-06-04T02:46:20.000Z,38
2018-06-04T02:47:20.000Z,38
2018-06-04T02:48:20.000Z,37
2018-06-04T02:49:20.000Z,38
2018-06-04T02:50:20.000Z,38
2018-06-04T02:51:20.000Z,38
2018-06-04T02:52:20.000Z,38
2018-06-04T02:53:20.000Z,37
2018-06-04T02:54:20.000Z,38
2018-06-04T02:55:20.000Z,38
2018-06-04T02:57:20.000Z,37
2018-06-04T02:58:20.000Z,37
2018-06-04T02:59:20.000Z,37
2018-06-04T03:01:20.000Z,37
2018-06-04T03:02:20.000Z,37
2018-06-04T03:03:20.000Z,37
2018-06-04T03:04:20.000Z,37
2018-06-04T03:05:20.000Z,37
2018-06-04T03:07:20.000Z,37
2018-06-04T03:08:20.000Z,37
2018-06-04T03:09:20.000Z,38
2018-06-04T03:11:20.000Z,37
2018-06-04T03:12:20.000Z,38
2018-06-04T03:13:20.000Z,37
2018-06-04T03:14:20.000Z,38
2018-06-04T03:16:20.000Z,37
2018-06-04T03:17:20.000Z,37
2018-06-04T03:18:20.000Z,37
2018-06-04T03:19:20.000Z,37
2018-06-04T03:20:20.000Z,37
2018-06-04T03:21:20.000Z,38
2018-06-04T03:22:20.000Z,37
2018-06-04T03:23:20.000Z,38
2018-06-04T03:24:20.000Z,38
2018-06-04T03:25:20.000Z,38
2018-06-04T03:26:20.000Z,37
2018-06-04T03:27:20.000Z,37
2018-06-04T03:29:20.000Z,37
2018-06-04T03:30:20.000Z,37
2018-06-04T03:31:20.000Z,37
2018-06-04T03:32:20.000Z,37
2018-06-04T03:33:20.000Z,37
2018-06-04T03:34:20.000Z,38
2018-06-04T03:35:20.000Z,37
2018-06-04T03:36:20.000Z,38
2018-06-04T03:37:20.000Z,37
2018-06-04T03:39:20.000Z,37
2018-06-04T03:40:20.000Z,38
2018-06-04T03:41:20.000Z,37
2018-06-04T03:42:20.000Z,38
2018-06-04T03:43:20.000Z,37
2018-06-04T03:45:20.000Z,37
2018-06-04T03:46:20.000Z,37
2018-06-04T03:47:20.000Z,37
2018-06-04T03:48:20.000Z,37
2018-06-04T03:49:20.000Z,38
2018-06-04T03:51:19.000Z,37
2018-06-04T03:52:19.000Z,38
2018-06-04T03:53:19.000Z,37
2018-06-04T03:54:19.000Z,37
2018-06-04T03:55:19.000Z,37
2018-06-04T03:56:19.000Z,37
2018-06-04T03:58:19.000Z,37
2018-06-04T03:59:19.000Z,37
2018-06-04T04:00:19.000Z,38
2018-06-04T04:01:19.000Z,37
2018-06-04T04:02:19.000Z,37
2018-06-04T04:03:19.000Z,37
2018-06-04T04:04:19.000Z,37
2018-06-04T04:05:19.000Z,37
2018-06-04T04:06:19.000Z,37
2018-06-04T04:07:19.000Z,37
2018-06-04T04:08:19.000Z,37
2018-06-04T04:09:19.000Z,37
2018-06-04T04:11:19.000Z,37
2018-06-04T04:13:19.000Z,37
2018-06-04T04:14:19.000Z,37
2018-06-04T04:15:19.000Z,37
2018-06-04T04:16:19.000Z,37
2018-06-04T04:17:19.000Z,37
2018-06-04T04:19:19.000Z,37
2018-06-04T04:20:19.000Z,37
2018-06-04T04:21:19.000Z,37
2018-06-04T04:23:19.000Z,37
2018-06-04T04:24:19.000Z,37
2018-06-04T04:25:19.000Z,37
2018-06-04T04:26:19.000Z,37
2018-06-04T04:28:19.000Z,37
2018-06-04T04:30:19.000Z,37
2018-06-04T04:31:19.000Z,38
2018-06-04T04:32:19.000Z,38
2018-06-04T04:34:19.000Z,39
2018-06-04T04:35:19.000Z,40
2018-06-04T04:36:19.000Z,40
2018-06-04T04:38:19.000Z,41
2018-06-04T04:39:19.000Z,42
2018-06-04T04:40:19.000Z,42
2018-06-04T04:42:19.000Z,43
2018-06-04T04:43:19.000Z,44
2018-06-04T04:44:19.000Z,44
2018-06-04T04:45:19.000Z,44
2018-06-04T04:46:19.000Z,45
2018-06-04T04:47:19.000Z,45
2018-06-04T04:48:19.000Z,45
2018-06-04T04:49:19.000Z,45
2018-06-04T04:50:19.000Z,45
2018-06-04T04:51:19.000Z,45
2018-06-04T04:52:19.000Z,45
2018-06-04T04:54:19.000Z,45
2018-06-04T04:55:20.000Z,45
2018-06-04T04:56:20.000Z,46
2018-06-04T04:57:20.000Z,46
2018-06-04T04:58:20.000Z,46
2018-06-04T04:59:20.000Z,47
2018-06-04T05:01:20.000Z,47
2018-06-04T05:03:20.000Z,47
2018-06-04T05:04:20.000Z,48
2018-06-04T05:05:20.000Z,48
2018-06-04T05:07:20.000Z,48
2018-06-04T05:09:20.000Z,48
2018-06-04T05:10:20.000Z,49
2018-06-04T05:11:20.000Z,49
2018-06-04T05:12:20.000Z,49
2018-06-04T05:14:20.000Z,49
2018-06-04T05:15:20.000Z,50
2018-06-04T05:16:20.000Z,50
2018-06-04T05:17:20.000Z,50
2018-06-04T05:19:20.000Z,50
2018-06-04T05:20:20.000Z,50
2018-06-04T05:21:20.000Z,50
2018-06-04T05:22:20.000Z,49
2018-06-04T05:23:20.000Z,49
2018-06-04T05:24:20.000Z,49
2018-06-04T05:25:20.000Z,49
2018-06-04T05:27:20.000Z,49
2018-06-04T05:28:20.000Z,49
2018-06-04T05:29:20.000Z,49
2018-06-04T05:30:20.000Z,49
2018-06-04T05:31:20.000Z,48
2018-06-04T05:32:20.000Z,49
2018-06-04T05:33:20.000Z,49
2018-06-04T05:34:20.000Z,49
2018-06-04T05:35:20.000Z,49
2018-06-04T05:36:20.000Z,49
2018-06-04T05:37:20.000Z,49
2018-06-04T05:38:20.000Z,49
2018-06-04T05:39:20.000Z,49
2018-06-04T05:41:20.000Z,49
2018-06-04T05:42:20.000Z,50
2018-06-04T05:43:20.000Z,50
2018-06-04T05:44:20.000Z,50
2018-06-04T05:45:20.000Z,51
2018-06-04T05:46:20.000Z,51
2018-06-04T05:47:20.000Z,51
2018-06-04T05:48:20.000Z,51
2018-06-04T05:49:20.000Z,51
2018-06-04T05:50:20.000Z,51
2018-06-04T05:51:20.000Z,51
2018-06-04T05:52:20.000Z,51
2018-06-04T05:53:20.000Z,51
2018-06-04T05:54:20.000Z,51
2018-06-04T05:55:20.000Z,51
2018-06-04T05:56:20.000Z,51
2018-06-04T05:57:20.000Z,51
2018-06-04T05:58:20.000Z,51
2018-06-04T05:59:20.000Z,50
2018-06-04T06:00:20.000Z,50
2018-06-04T06:01:20.000Z,50
2018-06-04T06:02:20.000Z,50
2018-06-04T06:03:20.000Z,50
2018-06-04T06:04:20.000Z,50
2018-06-04T06:05:20.000Z,50
2018-06-04T06:06:20.000Z,50
2018-06-04T06:07:20.000Z,49
2018-06-04T06:08:20.000Z,50
2018-06-04T06:09:20.000Z,50
2018-06-04T06:10:20.000Z,49
2018-06-04T06:11:20.000Z,49
2018-06-04T06:12:20.000Z,49
2018-06-04T06:13:20.000Z,49
2018-06-04T06:14:20.000Z,49
2018-06-04T06:16:20.000Z,48
2018-06-04T06:17:20.000Z,49
2018-06-04T06:18:20.000Z,48
2018-06-04T06:19:20.000Z,49
2018-06-04T06:20:20.000Z,48
2018-06-04T06:21:20.000Z,48
2018-06-04T06:22:20.000Z,48
2018-06-04T06:23:20.000Z,48
2018-06-04T06:24:20.000Z,48
2018-06-04T06:25:20.000Z,49
2018-06-04T06:27:20.000Z,48
2018-06-04T06:28:20.000Z,49
2018-06-04T06:29:20.000Z,48
2018-06-04T06:30:20.000Z,49
2018-06-04T06:31:20.000Z,49
2018-06-04T06:32:20.000Z,48
2018-06-04T06:33:20.000Z,48
2018-06-04T06:34:20.000Z,49
2018-06-04T06:35:20.000Z,49
2018-06-04T06:36:20.000Z,49
2018-06-04T06:37:20.000Z,48
2018-06-04T06:38:20.000Z,48
2018-06-04T06:40:20.000Z,48
2018-06-04T06:41:20.000Z,48
2018-06-04T06:42:20.000Z,47
2018-06-04T06:44:20.000Z,47
2018-06-04T06:45:20.000Z,48
2018-06-04T06:46:20.000Z,47
2018-06-04T06:47:20.000Z,47
2018-06-04T06:48:20.000Z,47
2018-06-04T06:49:20.000Z,47
2018-06-04T06:50:20.000Z,47
2018-06-04T06:51:20.000Z,47
2018-06-04T06:52:20.000Z,47
2018-06-04T06:53:20.000Z,47
2018-06-04T06:54:20.000Z,47
2018-06-04T06:55:20.000Z,47
2018-06-04T06:56:20.000Z,47
2018-06-04T06:57:20.000Z,47
2018-06-04T06:59:20.000Z,46
2018-06-04T07:00:20.000Z,46
2018-06-04T07:01:20.000Z,46
2018-06-04T07:02:20.000Z,46
2018-06-04T07:03:20.000Z,46
2018-06-04T07:04:20.000Z,46
2018-06-04T07:05:20.000Z,46
2018-06-04T07:06:20.000Z,46
2018-06-04T07:07:20.000Z,45
2018-06-04T07:08:20.000Z,45
2018-06-04T07:09:20.000Z,45
2018-06-04T07:10:20.000Z,45
2018-06-04T07:11:20.000Z,45
2018-06-04T07:12:20.000Z,45
2018-06-04T07:13:20.000Z,44
2018-06-04T07:14:20.000Z,44
2018-06-04T07:15:20.000Z,44
2018-06-04T07:16:20.000Z,44
2018-06-04T07:17:20.000Z,45
2018-06-04T07:18:20.000Z,45
2018-06-04T07:19:20.000Z,45
2018-06-04T07:20:20.000Z,45
2018-06-04T07:21:20.000Z,45
2018-06-04T07:22:20.000Z,45
2018-06-04T07:23:20.000Z,45
2018-06-04T07:24:20.000Z,45
2018-06-04T07:25:20.000Z,45
2018-06-04T07:26:20.000Z,44
2018-06-04T07:27:20.000Z,44
2018-06-04T07:28:20.000Z,44
2018-06-04T07:29:20.000Z,44
2018-06-04T07:30:20.000Z,44
2018-06-04T07:31:20.000Z,43
2018-06-04T07:32:20.000Z,43
2018-06-04T07:34:20.000Z,43
2018-06-04T07:35:20.000Z,43
2018-06-04T07:36:20.000Z,43
2018-06-04T07:37:20.000Z,44
2018-06-04T07:38:20.000Z,43
2018-06-04T07:39:20.000Z,43
2018-06-04T07:40:20.000Z,43
2018-06-04T07:41:20.000Z,43
2018-06-04T07:42:20.000Z,43
2018-06-04T07:43:20.000Z,43
2018-06-04T07:44:20.000Z,43
2018-06-04T07:45:20.000Z,43
2018-06-04T07:46:20.000Z,43
2018-06-04T07:47:20.000Z,43
2018-06-04T07:48:20.000Z,42
2018-06-04T07:49:20.000Z,42
2018-06-04T07:50:20.000Z,42
2018-06-04T07:51:20.000Z,42
2018-06-04T07:52:20.000Z,42
2018-06-04T07:53:20.000Z,43
2018-06-04T07:54:20.000Z,43
2018-06-04T07:55:20.000Z,42
2018-06-04T07:56:20.000Z,42
2018-06-04T07:57:20.000Z,42
2018-06-04T07:58:20.000Z,42
2018-06-04T07:59:20.000Z,42
2018-06-04T08:01:20.000Z,41
2018-06-04T08:02:20.000Z,41
2018-06-04T08:03:20.000Z,41
2018-06-04T08:04:20.000Z,41
2018-06-04T08:06:19.000Z,41
2018-06-04T08:07:19.000Z,41
2018-06-04T08:08:19.000Z,41
2018-06-04T08:09:19.000Z,40
2018-06-04T08:10:19.000Z,40
2018-06-04T08:12:19.000Z,40
2018-06-04T08:13:19.000Z,40
2018-06-04T08:14:19.000Z,40
2018-06-04T08:15:19.000Z,40
2018-06-04T08:17:19.000Z,40
2018-06-04T08:18:19.000Z,40
2018-06-04T08:19:19.000Z,40
2018-06-04T08:20:19.000Z,40
2018-06-04T08:21:19.000Z,40
2018-06-04T08:22:19.000Z,40
2018-06-04T08:24:19.000Z,40
2018-06-04T08:25:19.000Z,40
2018-06-04T08:26:19.000Z,40
2018-06-04T08:27:19.000Z,40
2018-06-04T08:28:19.000Z,40
2018-06-04T08:29:19.000Z,40
2018-06-04T08:30:19.000Z,40
2018-06-04T08:31:19.000Z,40
2018-06-04T08:32:19.000Z,40
2018-06-04T08:33:19.000Z,40
2018-06-04T08:34:19.000Z,40
2018-06-04T08:35:19.000Z,39
2018-06-04T08:36:19.000Z,39
2018-06-04T08:37:19.000Z,39
2018-06-04T08:38:19.000Z,39
2018-06-04T08:39:19.000Z,39
2018-06-04T08:40:19.000Z,39
2018-06-04T08:41:19.000Z,39
2018-06-04T08:42:19.000Z,39
2018-06-04T08:43:19.000Z,39
2018-06-04T08:44:19.000Z,39
2018-06-04T08:45:19.000Z,39
2018-06-04T08:46:19.000Z,39
2018-06-04T08:47:19.000Z,39
2018-06-04T08:48:19.000Z,39
2018-06-04T08:49:19.000Z,39
2018-06-04T08:50:19.000Z,39
2018-06-04T08:51:19.000Z,39
2018-06-04T08:52:19.000Z,39
2018-06-04T08:53:19.000Z,40
2018-06-04T08:54:19.000Z,39
2018-06-04T08:55:19.000Z,40
2018-06-04T08:56:19.000Z,40
2018-06-04T08:57:19.000Z,39
2018-06-04T08:58:19.000Z,39
2018-06-04T08:59:19.000Z,39
2018-06-04T09:00:19.000Z,39
2018-06-04T09:01:19.000Z,39
2018-06-04T09:02:19.000Z,39
2018-06-04T09:03:19.000Z,39
2018-06-04T09:04:19.000Z,39
2018-06-04T09:06:19.000Z,39
2018-06-04T09:07:19.000Z,39
2018-06-04T09:08:19.000Z,39
2018-06-04T09:09:20.000Z,39
2018-06-04T09:10:20.000Z,39
2018-06-04T09:12:20.000Z,39
2018-06-04T09:13:20.000Z,39
2018-06-04T09:14:20.000Z,39
2018-06-04T09:15:20.000Z,39
2018-06-04T09:16:20.000Z,39
2018-06-04T09:17:20.000Z,39
2018-06-04T09:19:20.000Z,39
2018-06-04T09:20:20.000Z,39
2018-06-04T09:21:20.000Z,39
2018-06-04T09:22:20.000Z,39
2018-06-04T09:23:20.000Z,39
2018-06-04T09:24:20.000Z,39
2018-06-04T09:25:20.000Z,39
2018-06-04T09:27:20.000Z,39
2018-06-04T09:28:20.000Z,39
2018-06-04T09:29:20.000Z,39
2018-06-04T09:30:20.000Z,38
2018-06-04T09:31:20.000Z,38
2018-06-04T09:32:20.000Z,38
2018-06-04T09:33:20.000Z,38
2018-06-04T09:34:20.000Z,38
2018-06-04T09:35:20.000Z,38
2018-06-04T09:36:20.000Z,38
2018-06-04T09:37:20.000Z,38
2018-06-04T09:38:20.000Z,38
2018-06-04T09:40:20.000Z,38
2018-06-04T09:41:20.000Z,38
2018-06-04T09:42:20.000Z,38
2018-06-04T09:44:20.000Z,38
2018-06-04T09:45:20.000Z,38
2018-06-04T09:46:20.000Z,38
2018-06-04T09:47:20.000Z,38
2018-06-04T09:48:20.000Z,38
2018-06-04T09:49:20.000Z,38
2018-06-04T09:50:20.000Z,38
2018-06-04T09:51:20.000Z,38
2018-06-04T09:52:20.000Z,38
2018-06-04T09:53:20.000Z,38
2018-06-04T09:54:20.000Z,38
2018-06-04T09:55:20.000Z,38
2018-06-04T09:56:20.000Z,38
2018-06-04T09:57:20.000Z,38
2018-06-04T09:59:20.000Z,38
2018-06-04T10:00:20.000Z,38
2018-06-04T10:01:20.000Z,38
2018-06-04T10:02:20.000Z,38
2018-06-04T10:03:20.000Z,38
2018-06-04T10:04:20.000Z,38
2018-06-04T10:05:20.000Z,38
2018-06-04T10:06:20.000Z,38
2018-06-04T10:08:20.000Z,38
2018-06-04T10:09:20.000Z,38
2018-06-04T10:10:20.000Z,39
2018-06-04T10:12:20.000Z,38
2018-06-04T10:13:20.000Z,38
2018-06-04T10:14:20.000Z,38
2018-06-04T10:15:20.000Z,38
2018-06-04T10:16:20.000Z,38
2018-06-04T10:17:20.000Z,38
2018-06-04T10:18:20.000Z,38
2018-06-04T10:19:20.000Z,38
2018-06-04T10:20:20.000Z,38
2018-06-04T10:21:20.000Z,38
2018-06-04T10:22:20.000Z,38
2018-06-04T10:23:20.000Z,38
2018-06-04T10:24:20.000Z,38
2018-06-04T10:25:20.000Z,38
2018-06-04T10:26:20.000Z,38
2018-06-04T10:28:20.000Z,38
2018-06-04T10:29:20.000Z,38
2018-06-04T10:30:20.000Z,38
2018-06-04T10:31:20.000Z,38
2018-06-04T10:33:20.000Z,38
2018-06-04T10:34:20.000Z,38
2018-06-04T10:35:20.000Z,38
2018-06-04T10:36:20.000Z,38
2018-06-04T10:38:20.000Z,38
2018-06-04T10:39:20.000Z,38
2018-06-04T10:40:20.000Z,38
2018-06-04T10:42:20.000Z,38
2018-06-04T10:43:20.000Z,38
2018-06-04T10:44:20.000Z,38
2018-06-04T10:45:20.000Z,38
2018-06-04T10:46:20.000Z,38
2018-06-04T10:48:20.000Z,38
2018-06-04T10:49:20.000Z,38
2018-06-04T10:50:20.000Z,38
2018-06-04T10:52:20.000Z,37
2018-06-04T10:54:20.000Z,37
2018-06-04T10:55:20.000Z,38
2018-06-04T10:56:20.000Z,38
2018-06-04T10:57:20.000Z,38
2018-06-04T10:58:20.000Z,38
2018-06-04T10:59:20.000Z,38
2018-06-04T11:00:20.000Z,38
2018-06-04T11:01:20.000Z,38
2018-06-04T11:02:20.000Z,38
2018-06-04T11:04:20.000Z,38
2018-06-04T11:05:20.000Z,38
2018-06-04T11:06:20.000Z,38
2018-06-04T11:07:20.000Z,38
2018-06-04T11:09:20.000Z,37
2018-06-04T11:10:20.000Z,38
2018-06-04T11:11:20.000Z,37
2018-06-04T11:12:20.000Z,38
2018-06-04T11:13:20.000Z,37
2018-06-04T11:14:20.000Z,38
2018-06-04T11:15:20.000Z,38
2018-06-04T11:16:20.000Z,38
2018-06-04T11:17:20.000Z,37
2018-06-04T11:18:20.000Z,37
2018-06-04T11:19:20.000Z,37
2018-06-04T11:20:20.000Z,37
2018-06-04T11:21:20.000Z,37
2018-06-04T11:25:06.000Z,37
2018-06-04T11:26:06.000Z,38
2018-06-04T11:27:06.000Z,38
2018-06-04T11:29:06.000Z,38
2018-06-04T11:30:06.000Z,38
2018-06-04T11:31:06.000Z,37
2018-06-04T11:32:06.000Z,38
2018-06-04T11:33:06.000Z,37
2018-06-04T11:34:06.000Z,38
2018-06-04T11:35:06.000Z,37
2018-06-04T11:36:06.000Z,37
2018-06-04T11:37:06.000Z,37
2018-06-04T11:38:06.000Z,37
2018-06-04T11:39:06.000Z,37
2018-06-04T11:40:06.000Z,37
2018-06-04T11:41:06.000Z,37
2018-06-04T11:42:06.000Z,37
2018-06-04T11:43:06.000Z,37
2018-06-04T11:44:06.000Z,37
2018-06-04T11:45:06.000Z,37
2018-06-04T11:47:06.000Z,37
2018-06-04T11:48:06.000Z,37
2018-06-04T11:49:06.000Z,37
2018-06-04T11:50:06.000Z,37
2018-06-04T11:51:06.000Z,37
2018-06-04T11:52:06.000Z,37
2018-06-04T11:53:06.000Z,37
2018-06-04T11:54:06.000Z,37
2018-06-04T11:55:06.000Z,37
2018-06-04T11:57:06.000Z,37
2018-06-04T11:58:06.000Z,37
2018-06-04T11:59:06.000Z,37
2018-06-04T12:01:06.000Z,36
2018-06-04T12:02:06.000Z,37
2018-06-04T12:03:06.000Z,36
2018-06-04T12:04:06.000Z,36
2018-06-04T12:06:06.000Z,36
2018-06-04T12:07:06.000Z,37
2018-06-04T12:08:06.000Z,37
2018-06-04T12:09:06.000Z,37
2018-06-04T12:10:06.000Z,37
2018-06-04T12:11:06.000Z,37
2018-06-04T12:12:06.000Z,37
2018-06-04T12:13:06.000Z,37
2018-06-04T12:14:06.000Z,37
2018-06-04T12:15:06.000Z,37
2018-06-04T12:16:06.000Z,37
2018-06-04T12:17:06.000Z,37
2018-06-04T12:18:06.000Z,37
2018-06-04T12:19:06.000Z,37
2018-06-04T12:20:06.000Z,37
2018-06-04T12:21:06.000Z,37
2018-06-04T12:23:06.000Z,36
2018-06-04T12:24:06.000Z,36
2018-06-04T12:25:06.000Z,37
2018-06-04T12:26:06.000Z,36
2018-06-04T12:28:06.000Z,36
2018-06-04T12:29:06.000Z,37
2018-06-04T12:31:06.000Z,36
2018-06-04T12:32:06.000Z,37
2018-06-04T12:33:06.000Z,36
2018-06-04T12:34:06.000Z,37
2018-06-04T12:35:06.000Z,37
2018-06-04T12:37:06.000Z,36
2018-06-04T12:38:06.000Z,37
2018-06-04T12:39:06.000Z,37
2018-06-04T12:40:06.000Z,37
2018-06-04T12:41:06.000Z,37
2018-06-04T12:42:06.000Z,37
2018-06-04T12:43:06.000Z,37
2018-06-04T12:44:06.000Z,37
2018-06-04T12:45:06.000Z,37
2018-06-04T12:46:06.000Z,36
2018-06-04T12:47:06.000Z,37
2018-06-04T12:48:06.000Z,36
2018-06-04T12:49:06.000Z,37
2018-06-04T12:50:06.000Z,37
2018-06-04T12:51:06.000Z,36
2018-06-04T12:52:06.000Z,37
2018-06-04T12:53:06.000Z,37
2018-06-04T12:54:06.000Z,36
2018-06-04T12:55:06.000Z,37
2018-06-04T12:56:06.000Z,36
2018-06-04T12:57:06.000Z,37
2018-06-04T12:58:06.000Z,36
2018-06-04T13:00:06.000Z,36
2018-06-04T13:01:06.000Z,37
2018-06-04T13:04:52.000Z,37
2018-06-04T13:05:52.000Z,37
2018-06-04T13:06:52.000Z,37
2018-06-04T13:07:52.000Z,37
2018-06-04T13:08:52.000Z,37
2018-06-04T13:10:52.000Z,37
2018-06-04T13:11:52.000Z,37
2018-06-04T13:12:52.000Z,37
2018-06-04T13:13:52.000Z,37
2018-06-04T13:14:52.000Z,37
2018-06-04T13:15:52.000Z,37
2018-06-04T13:17:52.000Z,37
2018-06-04T13:18:52.000Z,37
2018-06-04T13:19:52.000Z,37
2018-06-04T13:20:52.000Z,36
2018-06-04T13:21:52.000Z,36
2018-06-04T13:22:52.000Z,36
2018-06-04T13:23:52.000Z,36
2018-06-04T13:24:52.000Z,36
2018-06-04T13:25:52.000Z,36
2018-06-04T13:26:52.000Z,36
2018-06-04T13:27:52.000Z,37
2018-06-04T13:28:52.000Z,36
2018-06-04T13:29:52.000Z,36
2018-06-04T13:30:52.000Z,36
2018-06-04T13:31:52.000Z,36
2018-06-04T13:32:52.000Z,36
2018-06-04T13:33:52.000Z,36
2018-06-04T13:34:52.000Z,36
2018-06-04T13:36:52.000Z,36
2018-06-04T13:37:52.000Z,36
2018-06-04T13:38:52.000Z,36
2018-06-04T13:39:52.000Z,36
2018-06-04T13:40:52.000Z,36
2018-06-04T13:41:52.000Z,36
2018-06-04T13:42:52.000Z,36
2018-06-04T13:43:52.000Z,36
2018-06-04T13:44:52.000Z,36
2018-06-04T13:45:52.000Z,36
2018-06-04T13:46:52.000Z,36
2018-06-04T13:47:52.000Z,36
2018-06-04T13:48:52.000Z,36
2018-06-04T13:49:52.000Z,36
2018-06-04T13:50:52.000Z,36
2018-06-04T13:51:52.000Z,36
2018-06-04T13:52:52.000Z,36
2018-06-04T13:53:52.000Z,36
2018-06-04T13:54:52.000Z,36
2018-06-04T13:55:52.000Z,36
2018-06-04T13:57:52.000Z,36
2018-06-04T13:58:52.000Z,36
2018-06-04T13:59:52.000Z,37
2018-06-04T14:00:52.000Z,37
2018-06-04T14:01:52.000Z,37
2018-06-04T14:02:52.000Z,37
2018-06-04T14:03:52.000Z,37
2018-06-04T14:04:52.000Z,37
2018-06-04T14:05:52.000Z,36
2018-06-04T14:06:52.000Z,37
2018-06-04T14:07:52.000Z,37
2018-06-04T14:08:52.000Z,36
2018-06-04T14:09:52.000Z,37
2018-06-04T14:10:52.000Z,37
2018-06-04T14:11:52.000Z,37
2018-06-04T14:12:52.000Z,37
2018-06-04T14:13:52.000Z,37
2018-06-04T14:14:52.000Z,37
2018-06-04T14:15:52.000Z,37
2018-06-04T14:16:52.000Z,37
2018-06-04T14:17:52.000Z,37
2018-06-04T14:18:52.000Z,37
2018-06-04T14:20:52.000Z,37
2018-06-04T14:21:52.000Z,37
2018-06-04T14:22:52.000Z,37
2018-06-04T14:23:52.000Z,37
2018-06-04T14:24:52.000Z,37
2018-06-04T14:25:52.000Z,37
2018-06-04T14:26:52.000Z,37
2018-06-04T14:27:52.000Z,37
2018-06-04T14:28:52.000Z,37
2018-06-04T14:29:52.000Z,37
2018-06-04T14:30:52.000Z,37
2018-06-04T14:31:52.000Z,37
2018-06-04T14:33:52.000Z,37
2018-06-04T14:34:52.000Z,37
2018-06-04T14:35:52.000Z,37
2018-06-04T14:36:52.000Z,37
2018-06-04T14:37:52.000Z,37
2018-06-04T14:38:52.000Z,37
2018-06-04T14:39:52.000Z,37
2018-06-04T14:40:52.000Z,37
2018-06-04T14:41:52.000Z,37
2018-06-04T14:42:52.000Z,37
2018-06-04T14:43:52.000Z,37
2018-06-04T14:45:52.000Z,37
2018-06-04T14:46:52.000Z,37
2018-06-04T14:47:52.000Z,37
2018-06-04T14:49:52.000Z,37
2018-06-04T14:50:52.000Z,37
2018-06-04T14:51:52.000Z,37
2018-06-04T14:52:52.000Z,37
2018-06-04T14:53:52.000Z,37
2018-06-04T14:54:52.000Z,38
2018-06-04T14:55:52.000Z,38
2018-06-04T14:56:52.000Z,37
2018-06-04T14:57:52.000Z,37
2018-06-04T14:58:52.000Z,37
2018-06-04T14:59:52.000Z,37
2018-06-04T15:00:52.000Z,37
2018-06-04T15:01:52.000Z,37
2018-06-04T15:02:52.000Z,37
2018-06-04T15:03:52.000Z,37
2018-06-04T15:04:52.000Z,37
2018-06-04T15:05:52.000Z,37
2018-06-04T15:06:52.000Z,37
2018-06-04T15:07:52.000Z,37
2018-06-04T15:08:52.000Z,37
2018-06-04T15:09:52.000Z,37
2018-06-04T15:11:52.000Z,37
2018-06-04T15:12:52.000Z,37
2018-06-04T15:14:52.000Z,37
2018-06-04T15:15:52.000Z,37
2018-06-04T15:16:52.000Z,37
2018-06-04T15:18:52.000Z,37
2018-06-04T15:19:52.000Z,37
2018-06-04T15:20:52.000Z,37
2018-06-04T15:21:52.000Z,37
2018-06-04T15:22:52.000Z,37
2018-06-04T15:23:52.000Z,37
2018-06-04T15:24:52.000Z,37
2018-06-04T15:25:52.000Z,37
2018-06-04T15:26:52.000Z,37
2018-06-04T15:27:52.000Z,37
2018-06-04T15:28:52.000Z,37
2018-06-04T15:30:52.000Z,37
2018-06-04T15:31:52.000Z,37
2018-06-04T15:32:52.000Z,37
2018-06-04T15:33:52.000Z,37
2018-06-04T15:34:52.000Z,37
2018-06-04T15:35:52.000Z,37
2018-06-04T15:36:52.000Z,37
2018-06-04T15:37:52.000Z,37
2018-06-04T15:39:52.000Z,37
2018-06-04T15:40:52.000Z,37
2018-06-04T15:41:52.000Z,37
2018-06-04T15:42:52.000Z,37
2018-06-04T15:43:52.000Z,37
2018-06-04T15:44:52.000Z,37
2018-06-04T15:45:52.000Z,37
2018-06-04T15:46:52.000Z,37
2018-06-04T15:47:52.000Z,37
2018-06-04T15:48:52.000Z,37
2018-06-04T15:49:52.000Z,37
2018-06-04T15:50:52.000Z,37
2018-06-04T15:51:52.000Z,37
2018-06-04T15:52:52.000Z,37
2018-06-04T15:53:52.000Z,37
2018-06-04T15:54:52.000Z,37
2018-06-04T15:55:52.000Z,37